Time;durP1;ratioP1;P1;durP2;ratioP2;P2;SDS_P1;SDS_P2;PMS_P1;PMS_P2;Temp;Humidity;BMP_temperature;BMP_pressure;BME280_temperature;BME280_humidity;BME280_pressure;Samples;Min_cycle;Max_cycle;Signal;HPM_P1;HPM_P2
2023/06/01 03:59:12;;;;;;;12.88;4.40;;;;;;;15.25;100.00;100538.31;6523636;27;33899;-83
2023/06/01 04:02:16;;;;;;;9.27;4.82;;;;;;;15.37;100.00;100544.00;6523375;27;33680;-82
2023/06/01 04:05:20;;;;;;;5.75;4.40;;;;;;;15.35;100.00;100538.75;6487090;27;34505;-82
2023/06/01 04:08:23;;;;;;;9.50;5.00;;;;;;;15.49;100.00;100544.22;6504335;27;33571;-82
2023/06/01 04:11:26;;;;;;;8.07;4.28;;;;;;;15.54;100.00;100552.59;6523257;27;33121;-83
2023/06/01 04:14:29;;;;;;;9.27;4.57;;;;;;;15.67;100.00;100551.75;6509079;27;33536;-83
2023/06/01 04:17:32;;;;;;;9.82;4.37;;;;;;;15.77;100.00;100552.25;6507404;27;33378;-83
2023/06/01 04:20:35;;;;;;;8.57;4.95;;;;;;;15.83;100.00;100549.50;6475439;27;33431;-83
2023/06/01 04:23:38;;;;;;;5.47;4.43;;;;;;;15.85;100.00;100550.16;6527251;27;34364;-83
2023/06/01 04:26:41;;;;;;;6.85;4.50;;;;;;;16.06;100.00;100551.81;6508833;27;33840;-83
2023/06/01 04:29:44;;;;;;;8.02;4.60;;;;;;;16.14;100.00;100547.19;6524105;27;34361;-83
2023/06/01 04:32:47;;;;;;;5.45;4.30;;;;;;;16.24;100.00;100539.47;6499926;27;34517;-83
2023/06/01 04:35:55;;;;;;;12.57;5.12;;;;;;;16.28;99.32;100543.44;6504619;27;33760;-83
2023/06/01 04:38:58;;;;;;;11.35;4.57;;;;;;;16.41;98.16;100546.13;6487909;27;33298;-83
2023/06/01 04:42:02;;;;;;;7.20;3.87;;;;;;;16.50;97.08;100544.84;6504745;27;34442;-83
2023/06/01 04:45:09;;;;;;;6.85;4.37;;;;;;;16.57;97.29;100542.13;6471057;27;33642;-83
2023/06/01 04:48:14;;;;;;;9.27;4.47;;;;;;;16.75;92.13;100547.69;6506298;27;33848;-83
2023/06/01 04:51:23;;;;;;;6.62;4.47;;;;;;;16.84;91.23;100544.78;6471740;27;33561;-83
2023/06/01 04:54:26;;;;;;;6.73;4.10;;;;;;;16.99;90.55;100551.63;6507190;27;33710;-83
2023/06/01 04:57:29;;;;;;;7.25;3.80;;;;;;;17.16;90.25;100551.12;6498970;27;33741;-83
2023/06/01 05:00:33;;;;;;;8.15;4.78;;;;;;;17.27;90.21;100557.78;6559890;27;33681;-83
2023/06/01 05:03:36;;;;;;;8.30;4.53;;;;;;;17.34;90.31;100556.66;6579290;27;33810;-83
2023/06/01 05:06:40;;;;;;;8.73;3.97;;;;;;;17.57;87.42;100547.94;6583294;27;34071;-83
2023/06/01 05:09:42;;;;;;;6.20;4.20;;;;;;;17.64;84.41;100553.38;6586559;27;34534;-83
2023/06/01 05:12:45;;;;;;;5.37;4.25;;;;;;;17.71;82.55;100547.88;6582817;27;33633;-83
2023/06/01 05:15:49;;;;;;;8.23;4.22;;;;;;;17.81;81.63;100549.09;6576787;27;33753;-83
2023/06/01 05:18:52;;;;;;;9.07;4.35;;;;;;;17.97;81.29;100549.59;6578261;27;34420;-83
2023/06/01 05:21:55;;;;;;;6.25;4.28;;;;;;;18.07;80.73;100549.91;6559611;27;33607;-83
2023/06/01 05:24:58;;;;;;;6.68;4.22;;;;;;;18.32;78.05;100550.72;6578009;27;34341;-83
2023/06/01 05:28:01;;;;;;;11.98;4.30;;;;;;;18.49;77.44;100555.59;6580149;27;34734;-83
2023/06/01 05:31:05;;;;;;;10.60;4.50;;;;;;;18.58;77.66;100549.63;6571098;27;35086;-82
2023/06/01 05:34:09;;;;;;;8.05;4.82;;;;;;;18.66;77.09;100555.81;6558391;27;33581;-82
2023/06/01 05:37:12;;;;;;;10.00;4.85;;;;;;;18.67;75.77;100552.88;6557428;27;33613;-88
2023/06/01 05:40:15;;;;;;;10.27;4.40;;;;;;;18.84;74.18;100549.56;6576461;27;33692;-87
2023/06/01 05:43:18;;;;;;;10.48;4.40;;;;;;;18.95;73.49;100543.34;6578169;27;34874;-87
2023/06/01 05:46:21;;;;;;;8.32;4.72;;;;;;;19.07;72.58;100543.41;6576136;27;33443;-87
2023/06/01 05:49:24;;;;;;;9.32;4.20;;;;;;;19.29;70.85;100547.31;6577451;27;33535;-84
2023/06/01 05:52:27;;;;;;;7.70;4.05;;;;;;;19.45;71.51;100543.09;6577202;27;33641;-83
2023/06/01 05:55:30;;;;;;;5.62;4.12;;;;;;;19.62;67.79;100546.00;6577603;27;33694;-83
2023/06/01 05:58:33;;;;;;;7.00;4.22;;;;;;;19.83;67.24;100547.38;6577582;27;33492;-83
2023/06/01 06:01:36;;;;;;;8.18;4.28;;;;;;;19.96;66.64;100547.19;6558638;27;33657;-83
2023/06/01 06:04:40;;;;;;;9.00;4.57;;;;;;;19.97;65.19;100543.38;6577823;27;33375;-83
2023/06/01 06:07:42;;;;;;;7.22;4.10;;;;;;;20.14;65.70;100546.25;6576403;27;33670;-83
2023/06/01 06:10:48;;;;;;;10.13;4.25;;;;;;;20.24;65.53;100546.50;6576438;27;33959;-83
2023/06/01 06:13:51;;;;;;;7.25;4.07;;;;;;;20.42;62.22;100545.53;6560132;27;33578;-83
2023/06/01 06:16:54;;;;;;;6.57;3.75;;;;;;;20.69;59.13;100548.63;6583450;27;34508;-83
2023/06/01 06:19:57;;;;;;;10.00;4.18;;;;;;;20.88;57.45;100553.94;6583552;27;33546;-83
2023/06/01 06:23:00;;;;;;;7.05;3.17;;;;;;;21.04;55.74;100550.44;6579780;27;34722;-84
2023/06/01 06:26:03;;;;;;;6.35;3.50;;;;;;;21.20;53.28;100544.19;6585167;27;33224;-84
2023/06/01 06:29:06;;;;;;;4.95;3.58;;;;;;;21.25;51.71;100548.94;6558026;27;33706;-84
2023/06/01 06:32:09;;;;;;;6.55;3.37;;;;;;;21.27;52.69;100541.31;6576553;27;33770;-84
2023/06/01 06:35:12;;;;;;;5.85;3.30;;;;;;;21.45;52.28;100543.88;6577471;27;33606;-84
2023/06/01 06:38:16;;;;;;;5.90;3.15;;;;;;;21.59;52.45;100541.66;6575843;27;33122;-84
2023/06/01 06:41:20;;;;;;;7.15;3.03;;;;;;;21.82;52.34;100537.97;6557673;27;33357;-84
2023/06/01 06:44:23;;;;;;;4.47;3.40;;;;;;;21.86;50.46;100530.06;6558346;27;34249;-84
2023/06/01 06:47:26;;;;;;;6.03;2.83;;;;;;;21.86;47.88;100532.81;6576541;27;33645;-83
2023/06/01 06:50:29;;;;;;;7.53;3.30;;;;;;;21.95;47.44;100532.13;6576082;27;34209;-84
2023/06/01 06:53:33;;;;;;;6.18;3.05;;;;;;;22.10;48.21;100530.72;6557592;27;33681;-85
2023/06/01 06:56:35;;;;;;;7.95;3.15;;;;;;;22.27;47.93;100526.06;6577434;27;33733;-84
2023/06/01 06:59:38;;;;;;;7.62;2.90;;;;;;;22.51;45.67;100531.34;6556766;27;33406;-84
2023/06/01 07:02:42;;;;;;;4.70;2.83;;;;;;;22.56;45.76;100529.50;6577194;27;33272;-84
2023/06/01 07:05:45;;;;;;;4.07;2.83;;;;;;;22.79;44.26;100527.63;6558070;27;33249;-84
2023/06/01 07:08:49;;;;;;;5.82;3.58;;;;;;;22.87;44.05;100525.25;6577255;27;33199;-84
2023/06/01 07:11:58;;;;;;;3.97;3.03;;;;;;;22.71;44.35;100530.81;6559150;27;34433;-84
2023/06/01 07:15:02;;;;;;;3.08;2.53;;;;;;;22.95;42.37;100525.91;6586692;27;33530;-84
2023/06/01 07:18:05;;;;;;;7.12;3.37;;;;;;;22.91;41.46;100525.56;6600664;27;34490;-84
2023/06/01 07:21:07;;;;;;;10.18;3.10;;;;;;;22.87;42.30;100521.66;6595118;27;33757;-84
2023/06/01 07:24:11;;;;;;;6.35;2.55;;;;;;;22.98;42.14;100522.66;6558865;27;33710;-84
2023/06/01 07:27:14;;;;;;;4.55;2.50;;;;;;;23.20;42.57;100520.72;6557591;27;33548;-84
2023/06/01 07:30:17;;;;;;;5.53;2.78;;;;;;;23.36;42.93;100521.69;6577355;27;33284;-84
2023/06/01 07:33:20;;;;;;;3.78;2.83;;;;;;;23.59;41.89;100525.22;6559748;27;33648;-84
2023/06/01 07:36:24;;;;;;;9.27;3.45;;;;;;;23.65;42.77;100521.41;6577333;27;33596;-85
2023/06/01 07:39:26;;;;;;;4.10;2.72;;;;;;;23.86;42.41;100522.47;6559038;27;33590;-85
2023/06/01 07:42:29;;;;;;;6.15;2.67;;;;;;;23.87;40.21;100522.22;6581342;27;33393;-83
2023/06/01 07:45:32;;;;;;;4.18;2.78;;;;;;;23.85;41.50;100516.13;6559886;27;34055;-85
2023/06/01 07:48:38;;;;;;;7.37;2.80;;;;;;;24.13;41.34;100514.97;6558119;27;33362;-85
2023/06/01 07:51:43;;;;;;;6.53;2.67;;;;;;;24.22;39.96;100507.06;6558011;27;33685;-89
2023/06/01 07:54:47;;;;;;;4.15;3.10;;;;;;;24.24;39.19;100515.03;6583623;27;33363;-87
2023/06/01 07:57:52;;;;;;;3.65;2.85;;;;;;;24.28;39.62;100516.16;6596875;27;34003;-87
2023/06/01 08:00:55;;;;;;;3.80;2.80;;;;;;;24.39;39.00;100507.69;6578058;27;34873;-85
2023/06/01 08:03:58;;;;;;;5.57;2.65;;;;;;;24.48;38.17;100509.97;6575353;27;34027;-85
2023/06/01 08:07:03;;;;;;;4.57;2.80;;;;;;;24.45;38.95;100505.81;6557500;27;33476;-85
2023/06/01 08:10:08;;;;;;;3.78;2.37;;;;;;;24.61;39.51;100506.75;6578239;27;33625;-85
2023/06/01 08:13:11;;;;;;;5.20;3.35;;;;;;;24.59;37.69;100501.50;6558102;27;33575;-85
2023/06/01 08:16:14;;;;;;;4.37;2.62;;;;;;;24.62;40.21;100500.12;6564454;27;33358;-84
2023/06/01 08:19:17;;;;;;;3.45;2.62;;;;;;;24.67;37.89;100489.16;6583328;27;33468;-85
2023/06/01 08:22:20;;;;;;;4.90;3.12;;;;;;;24.84;37.46;100498.03;6562173;27;33856;-85
2023/06/01 08:25:23;;;;;;;6.12;2.62;;;;;;;25.07;37.83;100488.47;6583889;27;33777;-85
2023/06/01 08:28:26;;;;;;;5.12;3.03;;;;;;;25.14;38.43;100490.16;6560372;27;33827;-85
2023/06/01 08:31:29;;;;;;;6.85;2.92;;;;;;;25.49;37.81;100486.62;6559858;27;33844;-85
2023/06/01 08:34:32;;;;;;;7.28;2.50;;;;;;;25.71;38.87;100489.09;6561762;27;33622;-84
2023/06/01 08:37:36;;;;;;;7.62;2.97;;;;;;;25.65;36.74;100490.22;6578900;27;34415;-84
2023/06/01 08:40:40;;;;;;;4.95;2.62;;;;;;;25.78;36.82;100495.19;6579178;27;33554;-84
2023/06/01 08:43:53;;;;;;;7.18;2.87;;;;;;;25.78;36.59;100489.69;6559734;27;34070;-84
2023/06/01 08:46:56;;;;;;;6.07;3.20;;;;;;;25.86;36.62;100491.06;6578360;27;33546;-84
2023/06/01 08:49:59;;;;;;;5.87;3.08;;;;;;;25.92;35.47;100485.28;6576409;27;33352;-84
2023/06/01 08:53:03;;;;;;;12.23;2.80;;;;;;;25.86;36.86;100483.66;6558931;27;33248;-84
2023/06/01 08:56:06;;;;;;;5.35;2.90;;;;;;;26.05;35.92;100489.41;6576489;27;34996;-84
2023/06/01 08:59:11;;;;;;;5.10;2.50;;;;;;;26.13;35.84;100476.97;6558816;27;33488;-84
2023/06/01 09:02:15;;;;;;;5.87;2.75;;;;;;;26.14;37.12;100482.22;6578508;27;33704;-84
2023/06/01 09:05:18;;;;;;;4.05;2.72;;;;;;;26.32;35.29;100477.19;6559312;27;34361;-84
2023/06/01 09:08:22;;;;;;;6.10;3.03;;;;;;;26.42;33.58;100471.66;6559334;27;34361;-84
2023/06/01 09:11:26;;;;;;;4.95;2.85;;;;;;;26.21;33.81;100471.72;6560618;27;34325;-84
2023/06/01 09:14:29;;;;;;;10.38;2.90;;;;;;;26.27;33.97;100469.78;6576968;27;33227;-84
2023/06/01 09:17:32;;;;;;;5.43;2.80;;;;;;;26.39;33.39;100464.75;6577571;27;35514;-84
2023/06/01 09:20:37;;;;;;;3.45;2.60;;;;;;;26.48;34.68;100455.91;6578875;27;33336;-84
2023/06/01 09:23:44;;;;;;;6.15;2.87;;;;;;;26.43;33.86;100463.09;6559462;27;34310;-84
2023/06/01 09:26:50;;;;;;;7.65;3.20;;;;;;;26.39;33.62;100459.25;6578799;27;33438;-84
2023/06/01 09:29:59;;;;;;;4.72;2.80;;;;;;;26.49;33.51;100455.59;6578622;27;33682;-84
2023/06/01 09:33:20;;;;;;;5.12;2.42;;;;;;;26.43;33.92;100462.25;6558986;27;33230;-84
2023/06/01 09:36:25;;;;;;;6.65;2.92;;;;;;;26.53;34.37;100451.22;6561871;27;34434;-89
2023/06/01 09:39:33;;;;;;;5.43;2.87;;;;;;;26.76;34.03;100448.88;6579086;27;33303;-88
2023/06/01 09:42:36;;;;;;;5.57;3.00;;;;;;;27.10;33.67;100458.09;6580044;27;33167;-84
2023/06/01 09:45:39;;;;;;;5.30;2.85;;;;;;;27.04;32.28;100450.94;6566846;27;34484;-85
2023/06/01 09:48:44;;;;;;;4.28;2.90;;;;;;;26.72;33.21;100454.16;6579168;27;34024;-85
2023/06/01 09:51:47;;;;;;;6.53;2.60;;;;;;;26.85;32.51;100458.22;6559578;27;33181;-84
2023/06/01 09:54:51;;;;;;;5.78;3.40;;;;;;;26.81;33.90;100454.41;6578174;27;34700;-85
2023/06/01 09:58:17;;;;;;;7.32;3.50;;;;;;;27.03;33.61;100449.31;6576478;27;34534;-84
2023/06/01 10:01:21;;;;;;;5.10;3.58;;;;;;;27.44;33.59;100453.75;6587023;27;34559;-85
2023/06/01 10:04:26;;;;;;;4.03;2.60;;;;;;;27.46;32.67;100452.34;6582658;27;34988;-85
2023/06/01 10:07:31;;;;;;;7.62;3.17;;;;;;;27.69;33.02;100442.47;6568044;27;35103;-84
2023/06/01 10:10:34;;;;;;;8.95;3.30;;;;;;;28.13;33.01;100441.50;6581233;27;34160;-85
2023/06/01 10:13:37;;;;;;;4.72;3.20;;;;;;;28.37;31.68;100440.66;6580866;27;33269;-84
2023/06/01 10:16:42;;;;;;;7.22;3.55;;;;;;;28.34;31.16;100428.22;6585208;27;33311;-84
2023/06/01 10:19:45;;;;;;;4.30;3.08;;;;;;;28.47;32.03;100426.75;6586877;27;33851;-84
2023/06/01 10:22:48;;;;;;;7.22;3.20;;;;;;;28.94;30.87;100428.59;6582865;27;33782;-84
2023/06/01 10:25:52;;;;;;;10.38;3.25;;;;;;;29.08;31.32;100420.37;6596551;27;33661;-84
2023/06/01 10:28:55;;;;;;;4.65;3.08;;;;;;;29.21;32.02;100410.47;6574909;27;34114;-84
2023/06/01 10:31:58;;;;;;;8.93;3.37;;;;;;;29.45;30.47;100409.53;6579550;27;34454;-85
2023/06/01 10:35:02;;;;;;;5.82;3.08;;;;;;;29.37;30.02;100417.41;6560999;27;34010;-85
2023/06/01 10:38:17;;;;;;;5.80;3.12;;;;;;;29.24;30.52;100407.09;6559939;27;33796;-84
2023/06/01 10:41:30;;;;;;;5.12;3.03;;;;;;;29.01;31.70;100403.25;6560204;27;34443;-84
2023/06/01 10:44:39;;;;;;;4.75;3.05;;;;;;;29.14;30.98;100408.09;6579058;27;33917;-84
2023/06/01 10:47:41;;;;;;;16.83;3.53;;;;;;;29.19;30.92;100401.62;6579758;27;33634;-84
2023/06/01 10:51:18;;;;;;;6.60;3.28;;;;;;;29.73;30.33;100402.13;6583605;27;34972;-84
2023/06/01 10:54:27;;;;;;;4.70;3.05;;;;;;;30.26;30.47;100394.16;6578160;27;33595;-85
2023/06/01 10:57:31;;;;;;;6.65;3.30;;;;;;;31.09;28.48;100390.41;6579013;27;33993;-84
2023/06/01 11:00:39;;;;;;;5.32;3.25;;;;;;;30.93;28.26;100393.56;6560570;27;34560;-84
2023/06/01 11:03:45;;;;;;;7.10;3.20;;;;;;;30.35;29.17;100385.13;6578702;27;33537;-84
2023/06/01 11:06:49;;;;;;;9.13;3.30;;;;;;;29.81;30.05;100379.22;6578004;27;33971;-84
2023/06/01 11:09:52;;;;;;;6.40;3.15;;;;;;;30.76;28.13;100384.22;6575596;27;33838;-84
2023/06/01 11:13:11;;;;;;;4.32;3.22;;;;;;;31.25;29.53;100379.75;6558506;27;34710;-84
2023/06/01 11:16:18;;;;;;;6.68;3.53;;;;;;;31.48;27.20;100370.28;6571026;27;33315;-84
2023/06/01 11:19:40;;;;;;;4.57;2.83;;;;;;;32.27;28.65;100375.06;6577703;27;33875;-84
2023/06/01 11:22:43;;;;;;;6.32;3.30;;;;;;;33.44;26.47;100354.94;6541995;27;34569;-84
2023/06/01 11:25:48;;;;;;;5.50;2.92;;;;;;;34.72;24.16;100351.91;6558909;27;33320;-83
2023/06/01 11:29:02;;;;;;;4.28;3.20;;;;;;;34.83;23.41;100352.28;6578592;27;33233;-84
2023/06/01 11:32:06;;;;;;;7.12;3.20;;;;;;;35.95;23.58;100346.69;6577788;27;34443;-83
2023/06/01 11:35:19;;;;;;;5.43;2.92;;;;;;;37.41;21.63;100341.91;6578784;27;33537;-84
2023/06/01 11:38:22;;;;;;;4.07;2.80;;;;;;;38.04;20.97;100334.69;6554734;27;33203;-84
2023/06/01 11:41:27;;;;;;;5.03;3.05;;;;;;;38.26;20.28;100338.81;6577730;27;33330;-84
2023/06/01 11:44:30;;;;;;;4.70;2.97;;;;;;;38.56;20.24;100333.50;6558325;27;34445;-84
2023/06/01 11:47:33;;;;;;;4.25;2.85;;;;;;;39.37;19.15;100327.91;6576578;27;34604;-84
2023/06/01 11:50:36;;;;;;;7.75;3.10;;;;;;;39.71;18.83;100322.47;6580274;27;34177;-85
2023/06/01 11:53:40;;;;;;;4.97;3.05;;;;;;;39.58;18.21;100312.56;6544273;27;33683;-85
2023/06/01 11:56:43;;;;;;;4.82;2.70;;;;;;;40.22;18.74;100321.28;6560800;27;33237;-85
2023/06/01 11:59:48;;;;;;;4.75;2.75;;;;;;;39.76;18.84;100319.38;6579537;27;33591;-85
2023/06/01 12:03:06;;;;;;;4.80;2.78;;;;;;;40.60;17.90;100313.75;6578877;27;33553;-89
2023/06/01 12:06:19;;;;;;;4.65;2.65;;;;;;;40.42;18.27;100305.84;6579600;27;34737;-85
2023/06/01 12:09:22;;;;;;;4.37;2.87;;;;;;;40.69;18.15;100306.66;6578746;27;33661;-85
2023/06/01 12:12:25;;;;;;;4.50;3.22;;;;;;;40.82;16.52;100301.56;6578604;27;33676;-85
2023/06/01 12:15:28;;;;;;;3.28;2.70;;;;;;;41.32;16.41;100301.31;6579231;27;33502;-85
2023/06/01 12:18:31;;;;;;;6.43;2.80;;;;;;;42.41;15.32;100293.28;6583090;27;33349;-85
2023/06/01 12:21:35;;;;;;;2.67;2.42;;;;;;;42.03;16.00;100287.78;6562936;27;33390;-85
2023/06/01 12:24:41;;;;;;;4.30;2.78;;;;;;;40.12;17.61;100286.06;6580648;27;33874;-85
2023/06/01 12:27:43;;;;;;;3.05;2.62;;;;;;;41.77;16.20;100282.31;6585114;27;33622;-85
2023/06/01 12:30:47;;;;;;;4.90;2.85;;;;;;;43.05;15.98;100281.37;6579025;27;33656;-85
2023/06/01 12:33:50;;;;;;;5.22;2.50;;;;;;;43.62;15.03;100270.13;6576907;27;33622;-85
2023/06/01 12:36:56;;;;;;;5.40;2.67;;;;;;;43.01;15.78;100265.19;6578221;27;33243;-84
2023/06/01 12:40:03;;;;;;;3.83;2.50;;;;;;;43.14;15.77;100259.97;6578763;27;33817;-85
2023/06/01 12:43:18;;;;;;;5.18;2.90;;;;;;;42.47;15.12;100264.19;6579140;27;33541;-85
2023/06/01 12:46:22;;;;;;;4.57;2.65;;;;;;;39.58;17.24;100257.03;6582373;27;34501;-85
2023/06/01 12:49:25;;;;;;;3.37;2.55;;;;;;;41.40;15.76;100252.94;6582086;27;33819;-85
2023/06/01 12:52:27;;;;;;;4.47;2.80;;;;;;;40.64;16.67;100250.53;6582554;27;33186;-85
2023/06/01 12:55:30;;;;;;;4.00;2.90;;;;;;;41.18;15.67;100242.62;6584032;27;33691;-84
2023/06/01 12:58:33;;;;;;;3.53;2.80;;;;;;;42.65;14.38;100244.44;6596292;27;35159;-85
2023/06/01 13:01:36;;;;;;;5.78;3.22;;;;;;;40.77;15.90;100246.22;6580069;27;36608;-85
2023/06/01 13:04:39;;;;;;;5.22;2.72;;;;;;;40.24;17.03;100237.09;6570118;27;35130;-85
2023/06/01 13:07:43;;;;;;;6.15;3.33;;;;;;;42.18;15.15;100226.41;6575597;27;34312;-84
2023/06/01 13:10:46;;;;;;;4.47;3.05;;;;;;;41.45;16.02;100227.16;6576759;27;34354;-85
2023/06/01 13:13:49;;;;;;;3.75;2.67;;;;;;;43.16;14.89;100222.72;6557879;27;33294;-84
2023/06/01 13:16:52;;;;;;;3.62;2.53;;;;;;;42.77;14.96;100224.28;6576836;27;33577;-84
2023/06/01 13:19:56;;;;;;;4.97;2.90;;;;;;;43.80;14.31;100225.53;6559775;27;34352;-85
2023/06/01 13:22:59;;;;;;;3.80;2.95;;;;;;;43.80;13.68;100219.87;6576073;27;33586;-85
2023/06/01 13:26:04;;;;;;;2.95;2.60;;;;;;;44.24;13.53;100218.53;6558158;27;33268;-85
2023/06/01 13:29:09;;;;;;;3.17;2.87;;;;;;;43.00;14.79;100209.75;6577091;27;33435;-85
2023/06/01 13:32:16;;;;;;;4.57;3.10;;;;;;;43.87;13.35;100208.50;6577006;27;34487;-85
2023/06/01 13:35:19;;;;;;;4.55;2.90;;;;;;;43.08;14.13;100207.72;6558949;27;33435;-85
2023/06/01 13:38:22;;;;;;;3.37;2.62;;;;;;;41.99;15.20;100212.59;6557817;27;33580;-85
2023/06/01 13:41:25;;;;;;;5.22;3.37;;;;;;;38.73;17.63;100212.06;6575916;27;34356;-88
2023/06/01 13:44:31;;;;;;;5.50;3.30;;;;;;;35.71;20.23;100201.00;6558181;27;33428;-88
2023/06/01 13:47:34;;;;;;;5.62;3.10;;;;;;;35.33;20.00;100199.34;6575029;27;34370;-89
2023/06/01 13:50:37;;;;;;;4.50;3.17;;;;;;;38.63;17.81;100186.50;6576318;27;34376;-85
2023/06/01 13:53:40;;;;;;;4.90;2.70;;;;;;;40.07;16.62;100182.06;6555317;27;33594;-85
2023/06/01 13:56:43;;;;;;;3.30;3.00;;;;;;;41.29;16.49;100172.13;6555199;27;151987;-84
2023/06/01 13:59:46;;;;;;;4.07;2.90;;;;;;;40.18;16.25;100174.56;6579701;27;33611;-84
2023/06/01 14:02:49;;;;;;;3.72;2.95;;;;;;;39.88;16.81;100172.56;6575798;27;33747;-84
2023/06/01 14:05:53;;;;;;;5.35;3.10;;;;;;;36.76;19.71;100164.47;6577600;27;34920;-84
2023/06/01 14:08:59;;;;;;;;;;;;;;;34.63;22.06;100171.34;6576740;27;34440;-84
2023/06/01 14:12:02;;;;;;;6.40;3.33;;;;;;;32.74;24.18;100171.78;6558384;27;34009;-84
2023/06/01 14:15:05;;;;;;;5.57;3.12;;;;;;;31.92;26.40;100151.34;6582839;27;33727;-83
2023/06/01 14:18:09;;;;;;;4.50;3.37;;;;;;;31.87;26.76;100157.03;6583158;27;33867;-84
2023/06/01 14:21:11;;;;;;;4.32;3.30;;;;;;;31.99;26.39;100154.47;6581351;27;33718;-83
2023/06/01 14:24:15;;;;;;;7.53;2.97;;;;;;;31.14;28.64;100149.16;6581998;27;33653;-83
2023/06/01 14:27:18;;;;;;;5.62;3.35;;;;;;;31.32;27.95;100146.41;6561590;27;33913;-84
2023/06/01 14:30:21;;;;;;;7.50;3.60;;;;;;;30.93;27.95;100151.69;6577052;27;34482;-84
2023/06/01 14:33:25;;;;;;;6.60;3.42;;;;;;;30.65;28.32;100145.44;6574289;27;34443;-84
2023/06/01 14:36:28;;;;;;;4.70;3.17;;;;;;;30.49;28.98;100147.81;6575795;27;35177;-84
2023/06/01 14:39:49;;;;;;;5.05;3.40;;;;;;;30.64;29.55;100145.78;6577089;27;33295;-84
2023/06/01 14:42:52;;;;;;;7.10;3.60;;;;;;;30.43;29.41;100145.47;6558640;27;33347;-84
2023/06/01 14:46:43;;;;;;;6.32;3.62;;;;;;;30.82;30.22;100139.19;5608095;31;182450;-83
2023/06/01 14:49:46;;;;;;;4.45;3.35;;;;;;;30.82;30.22;100139.19;5590327;31;33965;-83
2023/06/01 14:52:49;;;;;;;5.80;3.15;;;;;;;30.20;30.42;100128.78;5589489;31;33190;-83
2023/06/01 14:55:52;;;;;;;5.40;3.55;;;;;;;30.18;31.65;100133.00;5593999;31;33731;-83
2023/06/01 14:58:55;;;;;;;4.00;3.20;;;;;;;30.29;30.46;100134.44;5593154;31;33540;-83
2023/06/01 15:01:59;;;;;;;6.70;3.12;;;;;;;30.25;30.17;100120.38;5580868;31;34345;-83
2023/06/01 15:05:02;;;;;;;7.53;3.72;;;;;;;30.17;30.41;100120.25;5596702;31;33217;-83
2023/06/01 15:08:06;;;;;;;6.47;3.80;;;;;;;29.85;31.15;100121.31;5600525;31;33315;-83
2023/06/01 15:11:09;;;;;;;6.37;3.45;;;;;;;29.31;31.66;100118.28;5600379;31;33464;-84
2023/06/01 15:14:16;;;;;;;7.18;3.45;;;;;;;29.45;31.86;100116.31;5600144;31;33258;-83
2023/06/01 15:17:19;;;;;;;6.60;4.00;;;;;;;28.98;32.55;100112.81;5600179;31;33688;-84
2023/06/01 15:20:22;;;;;;;7.40;3.87;;;;;;;28.82;33.42;100108.72;5601458;31;33646;-84
2023/06/01 15:23:26;;;;;;;4.95;3.80;;;;;;;28.62;33.32;100102.44;5600838;31;33325;-83
2023/06/01 15:26:29;;;;;;;4.28;3.40;;;;;;;28.45;33.58;100108.53;5589251;31;33329;-84
2023/06/01 15:29:32;;;;;;;5.03;3.80;;;;;;;28.31;34.51;100107.63;5589106;31;34379;-84
2023/06/01 15:32:35;;;;;;;6.93;3.65;;;;;;;28.32;33.99;100098.22;5610104;31;34331;-83
2023/06/01 15:35:38;;;;;;;5.85;3.70;;;;;;;28.15;34.89;100098.78;5599607;31;34057;-83
2023/06/01 15:38:41;;;;;;;5.15;3.37;;;;;;;27.96;35.49;100096.06;5587026;31;33350;-84
2023/06/01 15:41:44;;;;;;;7.82;4.10;;;;;;;27.91;35.28;100087.81;5600093;31;33602;-83
2023/06/01 15:44:47;;;;;;;11.95;3.85;;;;;;;27.65;36.22;100089.31;5601301;31;33629;-83
2023/06/01 15:47:50;;;;;;;5.75;3.97;;;;;;;27.66;36.22;100085.41;5612638;31;33623;-83
2023/06/01 15:50:53;;;;;;;7.32;3.85;;;;;;;27.62;35.52;100089.91;5603754;31;34023;-83
2023/06/01 15:53:56;;;;;;;5.10;3.30;;;;;;;27.51;35.92;100080.91;5586982;31;33723;-83
